createdAt,value
2018-01-13T00:02:23.509Z,18.65
2018-01-13T00:04:53.884Z,18.30
2018-01-13T00:07:22.427Z,20.13
2018-01-13T00:09:51.008Z,21.70
2018-01-13T00:12:19.441Z,22.73
2018-01-13T00:14:47.823Z,19.20
2018-01-13T00:17:17.073Z,20.25
2018-01-13T00:19:45.831Z,21.10
2018-01-13T00:22:14.297Z,21.00
2018-01-13T00:24:42.696Z,21.37
2018-01-13T00:27:11.536Z,21.45
2018-01-13T00:29:41.414Z,20.95
2018-01-13T00:32:10.195Z,21.90
2018-01-13T00:34:38.593Z,21.17
2018-01-13T00:37:07.111Z,21.52
2018-01-13T00:39:36.325Z,20.02
2018-01-13T00:42:05.134Z,22.92
2018-01-13T00:44:33.708Z,21.30
2018-01-13T00:47:02.202Z,19.62
2018-01-13T00:49:31.004Z,21.12
2018-01-13T00:51:59.641Z,21.10
2018-01-13T00:54:28.084Z,21.00
2018-01-13T00:56:57.244Z,21.08
2018-01-13T00:59:26.137Z,21.90
2018-01-13T01:01:54.648Z,20.33
2018-01-13T01:04:23.021Z,23.10
2018-01-13T01:06:51.436Z,21.20
2018-01-13T01:09:19.825Z,21.00
2018-01-13T01:11:48.563Z,21.10
2018-01-13T01:14:16.912Z,19.93
2018-01-13T01:16:45.319Z,21.13
2018-01-13T01:19:14.112Z,20.02
2018-01-13T01:21:42.921Z,21.20
2018-01-13T01:24:11.253Z,20.17
2018-01-13T01:26:39.653Z,19.80
2018-01-13T01:29:08.089Z,21.03
2018-01-13T01:31:37.341Z,21.00
2018-01-13T01:34:06.017Z,19.53
2018-01-13T01:36:34.492Z,21.20
2018-01-13T01:39:03.249Z,21.97
2018-01-13T01:41:32.026Z,20.60
2018-01-13T01:44:01.126Z,18.70
2018-01-13T01:46:29.475Z,20.37
2018-01-13T01:48:59.333Z,20.20
2018-01-13T01:51:27.734Z,19.80
2018-01-13T01:53:56.393Z,21.03
2018-01-13T01:56:24.788Z,20.90
2018-01-13T01:58:53.352Z,20.97
2018-01-13T02:01:21.768Z,21.27
2018-01-13T02:03:50.124Z,22.50
2018-01-13T02:06:18.918Z,23.13
2018-01-13T02:08:47.360Z,21.48
2018-01-13T02:11:16.612Z,22.00
2018-01-13T02:13:45.053Z,24.10
2018-01-13T02:16:13.582Z,21.23
2018-01-13T02:18:41.917Z,19.97
2018-01-13T02:21:10.279Z,21.15
2018-01-13T02:23:39.833Z,21.20
2018-01-13T02:26:08.281Z,20.73
2018-01-13T02:28:36.669Z,23.47
2018-01-13T02:31:05.226Z,21.77
2018-01-13T02:33:34.271Z,22.10
2018-01-13T02:36:02.577Z,20.83
2018-01-13T02:38:30.883Z,20.83
2018-01-13T02:40:59.953Z,20.50
2018-01-13T02:43:28.763Z,20.93
2018-01-13T02:45:57.821Z,21.58
2018-01-13T02:48:26.669Z,22.17
2018-01-13T02:50:55.377Z,19.63
2018-01-13T02:53:23.676Z,19.60
2018-01-13T02:55:51.970Z,19.27
2018-01-13T02:58:20.417Z,19.93
2018-01-13T03:00:48.898Z,20.10
2018-01-13T03:03:17.270Z,22.40
2018-01-13T03:05:45.802Z,20.70
2018-01-13T03:08:14.144Z,20.00
2018-01-13T03:10:42.596Z,20.10
2018-01-13T03:13:11.488Z,20.97
2018-01-13T03:15:40.093Z,20.67
2018-01-13T03:18:09.234Z,19.58
2018-01-13T03:20:37.584Z,21.27
2018-01-13T03:23:06.249Z,21.55
2018-01-13T03:25:34.968Z,20.60
2018-01-13T03:28:03.440Z,19.17
2018-01-13T03:30:31.827Z,20.42
2018-01-13T03:33:00.401Z,20.62
2018-01-13T03:35:29.566Z,20.43
2018-01-13T03:37:58.566Z,21.70
2018-01-13T03:40:26.940Z,20.08
2018-01-13T03:42:55.234Z,21.25
2018-01-13T03:45:23.694Z,21.90
2018-01-13T03:47:52.596Z,22.10
2018-01-13T03:50:20.958Z,21.02
2018-01-13T03:52:49.614Z,21.83
2018-01-13T03:55:18.876Z,24.37
2018-01-13T03:57:47.613Z,22.85
2018-01-13T04:00:16.917Z,24.10
2018-01-13T04:02:46.262Z,22.85
2018-01-13T04:05:14.710Z,21.17
2018-01-13T04:07:43.029Z,21.52
2018-01-13T04:10:11.641Z,24.27
2018-01-13T04:12:40.196Z,24.10
2018-01-13T04:15:09.660Z,23.42
2018-01-13T04:17:38.588Z,22.87
2018-01-13T04:20:06.968Z,23.33
2018-01-13T04:22:35.254Z,22.73
2018-01-13T04:25:03.983Z,24.67
2018-01-13T04:27:33.230Z,26.27
2018-01-13T04:30:01.536Z,23.10
2018-01-13T04:32:30.183Z,22.23
2018-01-13T04:34:58.725Z,25.65
2018-01-13T04:37:27.887Z,24.43
2018-01-13T04:39:56.628Z,24.17
2018-01-13T04:42:25.296Z,24.20
2018-01-13T04:44:54.342Z,24.95
2018-01-13T04:47:23.047Z,24.33
2018-01-13T04:49:51.715Z,25.27
2018-01-13T04:52:20.065Z,24.48
2018-01-13T04:54:48.741Z,23.90
2018-01-13T04:57:17.314Z,24.87
2018-01-13T04:59:46.141Z,24.27
2018-01-13T05:02:15.291Z,24.23
2018-01-13T05:04:43.952Z,22.30
2018-01-13T05:07:12.418Z,24.40
2018-01-13T05:09:40.796Z,25.33
2018-01-13T05:12:09.793Z,24.52
2018-01-13T05:14:38.793Z,24.13
2018-01-13T05:17:07.556Z,24.12
2018-01-13T05:19:36.037Z,24.75
2018-01-13T05:22:04.908Z,26.35
2018-01-13T05:24:33.417Z,23.70
2018-01-13T05:27:02.541Z,24.60
2018-01-13T05:29:31.391Z,24.20
2018-01-13T05:31:59.776Z,25.58
2018-01-13T05:34:28.873Z,23.90
2018-01-13T05:36:57.247Z,27.15
2018-01-13T05:39:25.541Z,23.50
2018-01-13T05:41:54.501Z,24.52
2018-01-13T05:44:23.323Z,25.27
2018-01-13T05:46:52.254Z,25.05
2018-01-13T05:49:20.553Z,23.52
2018-01-13T05:51:49.081Z,24.65
2018-01-13T05:54:17.373Z,23.87
2018-01-13T05:56:45.936Z,25.27
2018-01-13T05:59:14.277Z,24.05
2018-01-13T06:01:43.745Z,25.70
2018-01-13T06:04:12.136Z,26.27
2018-01-13T06:06:42.032Z,27.60
2018-01-13T06:09:10.791Z,24.77
2018-01-13T06:11:40.383Z,26.77
2018-01-13T06:14:08.824Z,27.05
2018-01-13T06:16:37.207Z,27.37
2018-01-13T06:19:05.938Z,25.45
2018-01-13T06:21:34.439Z,25.27
2018-01-13T06:24:02.871Z,26.00
2018-01-13T06:26:32.610Z,29.05
2018-01-13T06:29:00.929Z,28.27
2018-01-13T06:31:29.224Z,28.03
2018-01-13T06:33:57.576Z,27.60
2018-01-13T06:36:25.921Z,31.17
2018-01-13T06:38:54.233Z,31.48
2018-01-13T06:41:22.871Z,30.00
2018-01-13T06:43:51.414Z,30.53
2018-01-13T06:46:20.075Z,30.40
2018-01-13T06:48:49.241Z,31.27
2018-01-13T06:51:18.033Z,31.43
2018-01-13T06:53:46.525Z,28.40
2018-01-13T06:56:15.017Z,29.65
2018-01-13T06:58:43.497Z,29.23
2018-01-13T07:01:13.473Z,31.67
2018-01-13T07:03:42.734Z,32.90
2018-01-13T07:06:11.076Z,32.28
2018-01-13T07:08:39.385Z,30.00
2018-01-13T07:11:07.842Z,30.67
2018-01-13T07:13:36.131Z,30.83
2018-01-13T07:16:04.913Z,32.03
2018-01-13T07:18:33.481Z,31.58
2018-01-13T07:21:01.789Z,34.03
2018-01-13T07:23:30.287Z,34.53
2018-01-13T07:25:58.972Z,32.55
2018-01-13T07:28:27.679Z,35.42
2018-01-13T07:30:57.291Z,31.15
2018-01-13T07:33:26.641Z,32.35
2018-01-13T07:35:55.136Z,33.20
2018-01-13T07:38:23.613Z,31.60
2018-01-13T07:40:52.521Z,31.40
2018-01-13T07:43:21.609Z,32.47
2018-01-13T07:45:50.078Z,29.85
2018-01-13T07:48:18.429Z,32.85
2018-01-13T07:50:46.823Z,31.62
2018-01-13T07:53:15.122Z,32.05
2018-01-13T07:55:43.452Z,31.37
2018-01-13T07:58:11.757Z,31.90
2018-01-13T08:00:40.457Z,31.05
2018-01-13T08:03:08.811Z,31.50
2018-01-13T08:05:37.502Z,32.17
2018-01-13T08:08:05.950Z,30.92
2018-01-13T08:10:35.449Z,33.60
2018-01-13T08:13:04.517Z,28.70
2018-01-13T08:15:33.269Z,31.55
2018-01-13T08:18:01.629Z,33.95
2018-01-13T08:20:30.097Z,30.02
2018-01-13T08:22:59.496Z,34.28
2018-01-13T08:25:28.596Z,35.33
2018-01-13T08:27:58.260Z,32.92
2018-01-13T08:30:26.827Z,33.35
2018-01-13T08:32:55.348Z,34.60
2018-01-13T08:35:23.643Z,33.45
2018-01-13T08:37:52.717Z,36.67
2018-01-13T08:40:21.065Z,33.28
2018-01-13T08:42:49.744Z,34.92
2018-01-13T08:45:18.240Z,32.38
2018-01-13T08:47:46.602Z,31.73
2018-01-13T08:50:15.020Z,34.03
2018-01-13T08:52:43.739Z,34.40
2018-01-13T08:55:12.236Z,33.03
2018-01-13T08:57:40.747Z,33.20
2018-01-13T09:00:10.038Z,34.85
2018-01-13T09:02:38.849Z,33.83
2018-01-13T09:05:07.565Z,32.97
2018-01-13T09:07:35.993Z,34.92
2018-01-13T09:10:04.703Z,31.35
2018-01-13T09:12:33.854Z,32.25
2018-01-13T09:15:02.249Z,31.87
2018-01-13T09:17:30.905Z,33.20
2018-01-13T09:20:00.124Z,34.25
2018-01-13T09:22:28.445Z,34.40
2018-01-13T09:24:57.404Z,34.47
2018-01-13T09:27:25.712Z,33.67
2018-01-13T09:29:54.139Z,34.17
2018-01-13T09:32:22.898Z,30.52
2018-01-13T09:34:51.223Z,35.25
2018-01-13T09:37:19.755Z,33.45
2018-01-13T09:39:48.340Z,32.00
2018-01-13T09:42:18.254Z,31.37
2018-01-13T09:44:46.941Z,33.47
2018-01-13T09:47:15.293Z,34.07
2018-01-13T09:49:44.293Z,33.33
2018-01-13T09:52:13.014Z,32.40
2018-01-13T09:54:41.726Z,35.03
2018-01-13T09:57:11.643Z,32.37
2018-01-13T09:59:40.368Z,30.90
2018-01-13T10:02:08.771Z,34.63
2018-01-13T10:04:37.258Z,34.95
2018-01-13T10:07:05.738Z,34.05
2018-01-13T10:09:35.776Z,33.90
2018-01-13T10:12:05.388Z,32.37
2018-01-13T10:14:33.821Z,31.40
2018-01-13T10:17:02.173Z,33.63
2018-01-13T10:19:32.039Z,31.67
2018-01-13T10:22:00.477Z,31.70
2018-01-13T10:24:28.890Z,33.03
2018-01-13T10:26:57.346Z,34.33
2018-01-13T10:29:25.856Z,35.88
2018-01-13T10:31:55.601Z,34.53
2018-01-13T10:34:24.675Z,31.25
2018-01-13T10:36:53.763Z,33.53
2018-01-13T10:39:22.422Z,32.92
2018-01-13T10:41:50.805Z,31.08
2018-01-13T10:44:19.210Z,31.77
2018-01-13T10:46:47.941Z,32.13
2018-01-13T10:49:16.410Z,34.58
2018-01-13T10:51:44.744Z,35.45
2018-01-13T10:54:13.236Z,33.10
2018-01-13T10:56:41.998Z,33.40
2018-01-13T10:59:10.420Z,33.05
2018-01-13T11:01:38.952Z,34.40
2018-01-13T11:04:07.306Z,33.87
2018-01-13T11:06:36.272Z,33.07
2018-01-13T11:09:06.047Z,30.73
2018-01-13T11:11:35.148Z,32.90
2018-01-13T11:14:04.344Z,32.43
2018-01-13T11:16:33.208Z,34.60
2018-01-13T11:19:01.712Z,33.63
2018-01-13T11:21:30.105Z,32.63
2018-01-13T11:23:59.963Z,34.45
2018-01-13T11:26:29.069Z,32.30
2018-01-13T11:28:57.413Z,34.30
2018-01-13T11:31:26.529Z,33.60
2018-01-13T11:33:55.728Z,34.95
2018-01-13T11:36:24.857Z,33.92
2018-01-13T11:38:53.271Z,32.25
2018-01-13T11:41:23.639Z,33.08
2018-01-13T11:43:52.017Z,36.50
2018-01-13T11:46:20.670Z,34.45
2018-01-13T11:48:49.786Z,33.47
2018-01-13T11:51:19.144Z,34.70
2018-01-13T11:53:47.514Z,35.30
2018-01-13T11:56:16.249Z,36.60
2018-01-13T11:58:44.586Z,34.67
2018-01-13T12:01:13.051Z,34.58
2018-01-13T12:03:41.390Z,34.25
2018-01-13T12:06:10.640Z,33.10
2018-01-13T12:08:39.673Z,34.10
2018-01-13T12:11:08.190Z,34.80
2018-01-13T12:13:36.682Z,33.80
2018-01-13T12:16:05.146Z,35.55
2018-01-13T12:18:33.509Z,36.92
2018-01-13T12:21:03.126Z,35.08
2018-01-13T12:23:31.429Z,36.30
2018-01-13T12:26:00.032Z,36.88
2018-01-13T12:28:28.490Z,34.38
2018-01-13T12:30:56.821Z,35.80
2018-01-13T12:33:25.205Z,35.15
2018-01-13T12:35:53.765Z,37.05
2018-01-13T12:38:22.321Z,37.28
2018-01-13T12:40:51.738Z,34.63
2018-01-13T12:43:20.793Z,36.33
2018-01-13T12:45:49.332Z,36.15
2018-01-13T12:48:17.682Z,38.13
2018-01-13T12:50:46.282Z,33.03
2018-01-13T12:53:15.006Z,34.45
2018-01-13T12:55:44.110Z,37.37
2018-01-13T12:58:13.479Z,34.65
2018-01-13T13:00:43.180Z,42.50
2018-01-13T13:03:11.641Z,38.78
2018-01-13T13:05:40.149Z,36.37
2018-01-13T13:08:08.481Z,37.08
2018-01-13T13:10:37.132Z,37.08
2018-01-13T13:13:05.705Z,39.63
2018-01-13T13:15:34.076Z,35.35
2018-01-13T13:18:03.294Z,34.20
2018-01-13T13:20:31.658Z,34.28
2018-01-13T13:23:00.310Z,34.55
2018-01-13T13:25:28.692Z,35.58
2018-01-13T13:27:56.993Z,35.72
2018-01-13T13:30:25.522Z,34.47
2018-01-13T13:32:54.741Z,33.53
2018-01-13T13:35:23.178Z,32.88
2018-01-13T13:37:52.291Z,32.78
2018-01-13T13:40:21.575Z,33.05
2018-01-13T13:42:50.411Z,32.47
2018-01-13T13:45:18.725Z,32.15
2018-01-13T13:47:47.307Z,34.40
2018-01-13T13:50:15.644Z,35.58
2018-01-13T13:52:44.941Z,33.92
2018-01-13T13:55:13.344Z,32.65
2018-01-13T13:57:41.644Z,33.00
2018-01-13T14:00:10.380Z,35.58
2018-01-13T14:02:39.725Z,32.30
2018-01-13T14:05:08.082Z,35.00
2018-01-13T14:07:37.434Z,34.40
2018-01-13T14:10:06.124Z,31.33
2018-01-13T14:12:34.490Z,31.25
2018-01-13T14:15:03.179Z,30.98
2018-01-13T14:17:31.860Z,31.58
2018-01-13T14:20:02.081Z,28.73
2018-01-13T14:22:30.411Z,30.75
2018-01-13T14:24:58.764Z,31.80
2018-01-13T14:27:27.269Z,30.42
2018-01-13T14:29:56.393Z,31.30
2018-01-13T14:32:24.738Z,30.67
2018-01-13T14:34:54.070Z,29.63
2018-01-13T14:37:22.533Z,29.73
2018-01-13T14:39:50.833Z,28.40
2018-01-13T14:42:19.588Z,29.12
2018-01-13T14:44:48.629Z,27.93
2018-01-13T14:47:17.365Z,27.35
2018-01-13T14:49:46.573Z,28.50
2018-01-13T14:52:15.797Z,28.10
2018-01-13T14:54:44.191Z,25.40
2018-01-13T14:57:12.982Z,26.58
2018-01-13T14:59:41.886Z,27.75
2018-01-13T15:02:10.375Z,26.23
2018-01-13T15:04:38.746Z,25.45
2018-01-13T15:07:07.314Z,26.70
2018-01-13T15:09:35.793Z,24.67
2018-01-13T15:12:04.297Z,24.55
2018-01-13T15:14:32.686Z,22.85
2018-01-13T15:17:01.141Z,23.95
2018-01-13T15:19:29.629Z,23.05
2018-01-13T15:21:58.265Z,23.85
2018-01-13T15:24:26.964Z,23.55
2018-01-13T15:26:55.422Z,23.30
2018-01-13T15:29:24.561Z,24.10
2018-01-13T15:31:52.909Z,24.58
2018-01-13T15:34:21.375Z,21.85
2018-01-13T15:36:50.548Z,22.95
2018-01-13T15:39:20.428Z,26.65
2018-01-13T15:41:48.889Z,22.52
2018-01-13T15:44:17.299Z,20.90
2018-01-13T15:46:45.773Z,21.25
2018-01-13T15:49:14.274Z,20.73
2018-01-13T15:51:42.699Z,20.27
2018-01-13T15:54:12.174Z,20.83
2018-01-13T15:56:40.593Z,22.40
2018-01-13T15:59:09.148Z,19.45
2018-01-13T16:01:38.285Z,19.62
2018-01-13T16:04:07.101Z,21.35
2018-01-13T16:06:35.384Z,18.98
2018-01-13T16:09:04.940Z,19.12
2018-01-13T16:11:33.401Z,19.65
2018-01-13T16:14:01.764Z,17.80
2018-01-13T16:16:30.604Z,19.33
2018-01-13T16:18:59.257Z,16.65
2018-01-13T16:21:27.570Z,17.50
2018-01-13T16:23:56.974Z,17.98
2018-01-13T16:26:26.185Z,16.35
2018-01-13T16:28:54.606Z,17.37
2018-01-13T16:31:22.965Z,18.50
2018-01-13T16:33:51.438Z,19.25
2018-01-13T16:36:20.237Z,17.42
2018-01-13T16:38:48.737Z,17.62
2018-01-13T16:41:17.124Z,17.73
2018-01-13T16:43:45.492Z,19.05
2018-01-13T16:46:15.384Z,20.98
2018-01-13T16:48:43.868Z,17.12
2018-01-13T16:51:12.570Z,18.62
2018-01-13T16:53:41.398Z,18.37
2018-01-13T16:56:10.564Z,18.90
2018-01-13T16:58:38.987Z,18.77
2018-01-13T17:01:07.381Z,19.17
2018-01-13T17:03:35.937Z,19.87
2018-01-13T17:06:04.285Z,18.12
2018-01-13T17:08:33.142Z,16.25
2018-01-13T17:11:01.561Z,16.30
2018-01-13T17:13:29.926Z,17.17
2018-01-13T17:15:58.321Z,17.05
2018-01-13T17:18:26.734Z,16.85
2018-01-13T17:20:55.977Z,19.12
2018-01-13T17:23:24.714Z,19.17
2018-01-13T17:25:53.965Z,17.92
2018-01-13T17:28:22.407Z,17.23
2018-01-13T17:30:50.934Z,17.85
2018-01-13T17:33:20.149Z,17.80
2018-01-13T17:35:50.154Z,17.48
2018-01-13T17:38:18.870Z,20.12
2018-01-13T17:40:47.966Z,19.27
2018-01-13T17:43:17.034Z,18.95
2018-01-13T17:45:45.503Z,19.90
2018-01-13T17:48:14.152Z,18.23
2018-01-13T17:50:42.693Z,17.00
2018-01-13T17:53:11.079Z,16.05
2018-01-13T17:55:40.233Z,15.95
2018-01-13T17:58:08.753Z,16.80
2018-01-13T18:00:39.189Z,18.58
2018-01-13T18:03:08.489Z,17.80
2018-01-13T18:05:36.900Z,18.30
2018-01-13T18:08:05.418Z,17.83
2018-01-13T18:10:33.953Z,17.92
2018-01-13T18:13:02.481Z,17.45
2018-01-13T18:15:30.825Z,16.48
2018-01-13T18:17:59.349Z,13.35
2018-01-13T18:20:28.457Z,15.27
2018-01-13T18:22:56.865Z,16.58
2018-01-13T18:25:26.405Z,17.60
2018-01-13T18:27:54.781Z,16.62
2018-01-13T18:30:23.089Z,19.08
2018-01-13T18:32:51.877Z,19.10
2018-01-13T18:35:20.395Z,17.55
2018-01-13T18:37:53.127Z,16.10
2018-01-13T18:40:21.953Z,18.52
2018-01-13T18:42:51.185Z,17.45
2018-01-13T18:45:20.242Z,16.62
2018-01-13T18:47:50.209Z,18.48
2018-01-13T18:50:18.647Z,16.95
2018-01-13T18:52:48.844Z,16.30
2018-01-13T18:55:17.218Z,18.70
2018-01-13T18:57:45.865Z,18.00
2018-01-13T19:00:14.385Z,17.80
2018-01-13T19:02:43.108Z,18.52
2018-01-13T19:05:11.509Z,19.05
2018-01-13T19:07:40.020Z,17.80
2018-01-13T19:10:08.439Z,17.08
2018-01-13T19:12:38.442Z,18.92
2018-01-13T19:15:06.912Z,17.85
2018-01-13T19:17:35.282Z,17.60
2018-01-13T19:20:03.721Z,18.10
2018-01-13T19:22:32.137Z,16.40
2018-01-13T19:25:01.352Z,17.73
2018-01-13T19:27:30.674Z,16.45
2018-01-13T19:29:59.047Z,18.67
2018-01-13T19:32:28.464Z,15.85
2018-01-13T19:34:56.800Z,17.42
2018-01-13T19:37:25.529Z,18.10
2018-01-13T19:39:53.876Z,18.48
2018-01-13T19:42:22.650Z,17.20
2018-01-13T19:44:50.973Z,14.05
2018-01-13T19:47:19.297Z,17.10
2018-01-13T19:49:49.446Z,17.27
2018-01-13T19:52:17.757Z,18.15
2018-01-13T19:54:46.117Z,16.40
2018-01-13T19:57:14.650Z,15.98
2018-01-13T19:59:42.992Z,16.87
2018-01-13T20:02:11.581Z,15.90
2018-01-13T20:04:40.305Z,15.32
2018-01-13T20:07:09.838Z,16.08
2018-01-13T20:09:38.172Z,15.55
2018-01-13T20:12:06.611Z,14.60
2018-01-13T20:14:35.186Z,15.52
2018-01-13T20:17:03.662Z,16.67
2018-01-13T20:19:32.009Z,14.70
2018-01-13T20:22:00.919Z,18.37
2018-01-13T20:24:29.517Z,16.50
2018-01-13T20:26:57.824Z,16.30
2018-01-13T20:29:26.277Z,15.75
2018-01-13T20:31:54.625Z,15.25
2018-01-13T20:34:23.945Z,14.43
2018-01-13T20:36:52.273Z,16.40
2018-01-13T20:39:20.724Z,15.52
2018-01-13T20:41:49.076Z,16.17
2018-01-13T20:44:17.585Z,15.32
2018-01-13T20:46:46.226Z,16.25
2018-01-13T20:49:14.613Z,15.85
2018-01-13T20:51:43.453Z,15.65
2018-01-13T20:54:11.887Z,16.17
2018-01-13T20:56:40.521Z,14.45
2018-01-13T20:59:09.463Z,15.15
2018-01-13T21:01:38.036Z,15.82
2018-01-13T21:04:07.146Z,14.52
2018-01-13T21:06:37.969Z,15.30
2018-01-13T21:09:06.298Z,15.57
2018-01-13T21:11:34.745Z,16.70
2018-01-13T21:14:03.461Z,15.32
2018-01-13T21:16:32.017Z,14.87
2018-01-13T21:19:01.544Z,18.65
2018-01-13T21:21:30.838Z,16.12
2018-01-13T21:24:02.131Z,13.32
2018-01-13T21:26:30.465Z,13.15
2018-01-13T21:28:59.358Z,15.00
2018-01-13T21:31:28.051Z,13.02
2018-01-13T21:33:56.604Z,12.00
2018-01-13T21:36:25.113Z,13.60
2018-01-13T21:38:53.418Z,13.00
2018-01-13T21:41:21.861Z,12.07
2018-01-13T21:43:50.300Z,10.73
2018-01-13T21:46:19.277Z,11.30
2018-01-13T21:48:47.653Z,12.40
2018-01-13T21:51:16.933Z,12.05
2018-01-13T21:53:45.520Z,12.80
2018-01-13T21:56:14.461Z,13.07
2018-01-13T21:58:43.557Z,12.27
2018-01-13T22:01:12.684Z,11.57
2018-01-13T22:03:41.073Z,12.32
2018-01-13T22:06:09.661Z,11.07
2018-01-13T22:08:38.865Z,11.60
2018-01-13T22:11:07.245Z,10.10
2018-01-13T22:13:35.877Z,11.07
2018-01-13T22:16:04.962Z,12.88
2018-01-13T22:18:34.193Z,11.05
2018-01-13T22:21:02.566Z,9.88
2018-01-13T22:23:30.937Z,11.20
2018-01-13T22:25:59.252Z,9.68
2018-01-13T22:28:27.598Z,11.60
2018-01-13T22:30:56.135Z,11.63
2018-01-13T22:33:24.419Z,11.55
2018-01-13T22:35:53.044Z,11.95
2018-01-13T22:38:22.661Z,11.05
2018-01-13T22:40:51.011Z,12.13
2018-01-13T22:43:20.189Z,10.13
2018-01-13T22:45:48.517Z,11.68
2018-01-13T22:48:16.869Z,10.90
2018-01-13T22:50:45.489Z,10.73
2018-01-13T22:53:13.956Z,12.88
2018-01-13T22:55:42.483Z,10.15
2018-01-13T22:58:11.236Z,10.70
2018-01-13T23:00:44.307Z,10.43
2018-01-13T23:03:13.469Z,10.65
2018-01-13T23:05:41.832Z,9.60
2018-01-13T23:08:10.264Z,10.32
2018-01-13T23:10:38.613Z,11.05
2018-01-13T23:13:09.378Z,11.48
2018-01-13T23:15:37.938Z,10.77
2018-01-13T23:18:07.573Z,10.45
2018-01-13T23:20:36.929Z,11.48
2018-01-13T23:23:05.622Z,9.05
2018-01-13T23:25:34.089Z,9.68
2018-01-13T23:28:02.610Z,9.45
2018-01-13T23:30:31.688Z,10.18
2018-01-13T23:33:00.132Z,10.07
2018-01-13T23:35:29.034Z,9.80
2018-01-13T23:37:58.323Z,9.77
2018-01-13T23:40:26.796Z,10.02
2018-01-13T23:42:55.173Z,10.30
2018-01-13T23:45:23.871Z,9.25
2018-01-13T23:47:52.826Z,9.52
2018-01-13T23:50:22.272Z,10.80
2018-01-13T23:52:50.617Z,11.00
2018-01-13T23:55:18.961Z,10.25
2018-01-13T23:57:48.360Z,8.90
